createdAt,value
2022-10-17T00:01:01.700Z,101629.16
2022-10-17T00:03:29.319Z,101634.41
2022-10-17T00:05:58.317Z,101622.25
2022-10-17T00:08:26.014Z,101630.09
2022-10-17T00:10:58.991Z,101623.13
2022-10-17T00:13:27.256Z,101622.25
2022-10-17T00:15:55.135Z,101618.75
2022-10-17T00:18:23.024Z,101610.94
2022-10-17T00:20:50.513Z,101623.16
2022-10-17T00:23:18.474Z,101617.91
2022-10-17T00:25:46.347Z,101614.44
2022-10-17T00:28:15.580Z,101614.44
2022-10-17T00:30:43.019Z,101620.53
2022-10-17T00:33:10.486Z,101603.97
2022-10-17T00:35:37.935Z,101604.84
2022-10-17T00:38:05.381Z,101617.03
2022-10-17T00:40:32.838Z,101610.94
2022-10-17T00:43:00.354Z,101614.41
2022-10-17T00:45:30.870Z,101618.75
2022-10-17T00:48:06.381Z,101610.91
2022-10-17T00:50:36.437Z,101597.03
2022-10-17T00:53:06.639Z,101609.19
2022-10-17T00:55:43.608Z,101599.63
2022-10-17T00:58:11.311Z,101600.47
2022-10-17T01:00:39.174Z,101598.75
2022-10-17T01:03:06.695Z,101596.97
2022-10-17T01:05:34.304Z,101596.97
2022-10-17T01:08:02.343Z,101588.28
2022-10-17T01:10:41.031Z,101584.78
2022-10-17T01:13:22.401Z,101584.78
2022-10-17T01:15:58.621Z,101590.84
2022-10-17T01:18:59.676Z,101586.50
2022-10-17T01:21:56.215Z,101583.88
2022-10-17T01:24:51.721Z,101574.25
2022-10-17T01:27:35.502Z,101579.50
2022-10-17T01:30:24.171Z,101584.72
2022-10-17T01:33:29.543Z,101577.75
2022-10-17T01:36:12.830Z,101581.25
2022-10-17T01:39:38.435Z,101574.25
2022-10-17T01:42:33.118Z,101581.22
2022-10-17T01:45:00.522Z,101576.88
2022-10-17T01:47:32.214Z,101575.13
2022-10-17T01:50:05.326Z,101569.03
2022-10-17T01:52:42.554Z,101546.41
2022-10-17T01:55:09.967Z,101556.84
2022-10-17T01:57:43.095Z,101533.31
2022-10-17T02:00:14.713Z,101534.16
2022-10-17T02:02:46.039Z,101531.53
2022-10-17T02:05:13.538Z,101542.84
2022-10-17T02:07:43.812Z,101535.88
2022-10-17T02:10:20.695Z,101534.13
2022-10-17T02:13:03.139Z,101525.41
2022-10-17T02:15:52.789Z,101528.88
2022-10-17T02:18:42.549Z,101530.63
2022-10-17T02:21:19.952Z,101529.75
2022-10-17T02:24:02.208Z,101530.63
2022-10-17T02:26:36.415Z,101523.63
2022-10-17T02:29:07.187Z,101521.00
2022-10-17T02:31:41.231Z,101510.56
2022-10-17T02:34:22.021Z,101515.78
2022-10-17T02:36:54.730Z,101523.63
2022-10-17T02:39:24.402Z,101518.41
2022-10-17T02:41:54.724Z,101512.34
2022-10-17T02:44:24.361Z,101516.66
2022-10-17T02:46:58.912Z,101514.06
2022-10-17T02:49:31.218Z,101528.84
2022-10-17T02:52:05.949Z,101528.84
2022-10-17T02:54:58.409Z,101520.09
2022-10-17T02:57:32.057Z,101536.66
2022-10-17T03:00:02.291Z,101532.31
2022-10-17T03:02:30.127Z,101530.53
2022-10-17T03:04:57.743Z,101532.25
2022-10-17T03:07:25.173Z,101534.88
2022-10-17T03:09:52.643Z,101529.69
2022-10-17T03:12:20.093Z,101523.53
2022-10-17T03:14:47.549Z,101524.41
2022-10-17T03:17:15.022Z,101527.03
2022-10-17T03:19:42.470Z,101532.19
2022-10-17T03:22:10.208Z,101536.50
2022-10-17T03:24:37.685Z,101539.94
2022-10-17T03:27:05.332Z,101533.84
2022-10-17T03:29:32.792Z,101531.16
2022-10-17T03:32:00.270Z,101541.56
2022-10-17T03:34:27.736Z,101553.66
2022-10-17T03:36:55.366Z,101550.91
2022-10-17T03:39:22.854Z,101550.84
2022-10-17T03:41:50.310Z,101552.56
2022-10-17T03:44:17.822Z,101551.66
2022-10-17T03:46:45.296Z,101554.25
2022-10-17T03:49:12.831Z,101559.44
2022-10-17T03:51:40.327Z,101548.06
2022-10-17T03:54:07.781Z,101543.69
2022-10-17T03:56:35.257Z,101548.94
2022-10-17T03:59:03.007Z,101546.28
2022-10-17T04:01:30.656Z,101547.16
2022-10-17T04:03:58.517Z,101550.59
2022-10-17T04:06:25.975Z,101548.88
2022-10-17T04:08:53.478Z,101544.50
2022-10-17T04:11:22.586Z,101535.78
2022-10-17T04:13:55.488Z,101547.16
2022-10-17T04:16:23.870Z,101553.25
2022-10-17T04:18:55.474Z,101567.19
2022-10-17T04:21:24.628Z,101562.88
2022-10-17T04:23:56.335Z,101548.88
2022-10-17T04:26:24.385Z,101554.13
2022-10-17T04:28:52.287Z,101566.31
2022-10-17T04:31:20.365Z,101544.53
2022-10-17T04:33:50.205Z,101573.25
2022-10-17T04:36:20.003Z,101564.56
2022-10-17T04:38:48.065Z,101573.25
2022-10-17T04:41:18.927Z,101572.34
2022-10-17T04:43:50.100Z,101570.59
2022-10-17T04:46:18.890Z,101583.66
2022-10-17T04:48:46.576Z,101568.78
2022-10-17T04:51:16.422Z,101585.38
2022-10-17T04:53:45.545Z,101577.50
2022-10-17T04:58:42.506Z,101576.63
2022-10-17T05:01:13.105Z,101584.34
2022-10-17T05:03:41.276Z,101590.47
2022-10-17T05:06:14.265Z,101593.88
2022-10-17T05:08:42.099Z,101583.41
2022-10-17T05:11:27.505Z,101578.16
2022-10-17T05:13:57.649Z,101578.13
2022-10-17T05:16:26.779Z,101581.63
2022-10-17T05:18:57.150Z,101585.09
2022-10-17T05:21:26.353Z,101585.09
2022-10-17T05:23:54.721Z,101574.63
2022-10-17T05:26:23.411Z,101578.06
2022-10-17T05:28:52.407Z,101593.75
2022-10-17T05:31:20.268Z,101597.25
2022-10-17T05:33:47.786Z,101598.06
2022-10-17T05:36:15.311Z,101615.44
2022-10-17T05:38:42.912Z,101614.56
2022-10-17T05:41:11.042Z,101611.00
2022-10-17T05:43:38.513Z,101605.75
2022-10-17T05:46:07.161Z,101597.13
2022-10-17T05:48:35.261Z,101590.13
2022-10-17T05:51:08.755Z,101588.31
2022-10-17T05:53:38.822Z,101586.56
2022-10-17T05:56:08.412Z,101585.66
2022-10-17T05:58:49.739Z,101589.13
2022-10-17T06:01:18.269Z,101598.72
2022-10-17T06:03:45.825Z,101603.94
2022-10-17T06:06:14.678Z,101602.16
2022-10-17T06:08:42.340Z,101592.53
2022-10-17T06:11:10.539Z,101600.41
2022-10-17T06:13:39.426Z,101595.19
2022-10-17T06:16:07.535Z,101596.00
2022-10-17T06:18:35.165Z,101596.88
2022-10-17T06:21:05.664Z,101607.34
2022-10-17T06:23:33.475Z,101609.94
2022-10-17T06:26:05.245Z,101618.66
2022-10-17T06:28:33.092Z,101622.94
2022-10-17T06:31:00.679Z,101616.78
2022-10-17T06:33:28.236Z,101626.28
2022-10-17T06:35:56.823Z,101626.25
2022-10-17T06:38:24.637Z,101623.63
2022-10-17T06:40:53.926Z,101636.63
2022-10-17T06:43:26.924Z,101639.19
2022-10-17T06:48:27.973Z,101644.41
2022-10-17T06:50:59.406Z,101650.50
2022-10-17T06:53:32.444Z,101661.81
2022-10-17T06:56:03.001Z,101666.16
2022-10-17T06:58:32.129Z,101664.38
2022-10-17T07:01:04.575Z,101673.06
2022-10-17T07:03:32.798Z,101674.81
2022-10-17T07:06:00.261Z,101662.56
2022-10-17T07:08:27.844Z,101666.91
2022-10-17T07:10:55.594Z,101670.41
2022-10-17T07:13:23.519Z,101671.31
2022-10-17T07:15:51.076Z,101678.22
2022-10-17T07:18:18.608Z,101669.50
2022-10-17T07:20:54.213Z,101677.38
2022-10-17T07:23:22.363Z,101677.34
2022-10-17T07:25:50.109Z,101683.41
2022-10-17T07:28:17.682Z,101675.53
2022-10-17T07:30:46.809Z,101679.03
2022-10-17T07:33:16.826Z,101704.38
2022-10-17T07:35:44.318Z,101714.88
2022-10-17T07:38:12.170Z,101718.41
2022-10-17T07:40:39.619Z,101713.16
2022-10-17T07:43:07.143Z,101721.84
2022-10-17T07:45:34.595Z,101742.03
2022-10-17T07:48:02.101Z,101765.59
2022-10-17T07:50:29.617Z,101780.44
2022-10-17T07:52:57.119Z,101792.63
2022-10-17T07:55:24.672Z,101803.03
2022-10-17T07:57:52.250Z,101822.28
2022-10-17T08:00:20.115Z,101832.75
2022-10-17T08:02:47.746Z,101842.28
2022-10-17T08:05:15.314Z,101857.13
2022-10-17T08:07:42.767Z,101852.72
2022-10-17T08:10:13.058Z,101864.13
2022-10-17T08:12:40.601Z,101858.88
2022-10-17T08:15:09.629Z,101858.03
2022-10-17T08:17:38.872Z,101856.34
2022-10-17T08:20:07.633Z,101832.75
2022-10-17T08:22:35.099Z,101814.38
2022-10-17T08:25:02.701Z,101823.19
2022-10-17T08:27:30.220Z,101819.66
2022-10-17T08:29:57.722Z,101824.91
2022-10-17T08:32:28.052Z,101849.44
2022-10-17T08:34:56.582Z,101866.00
2022-10-17T08:37:24.296Z,101873.00
2022-10-17T08:39:51.792Z,101871.28
2022-10-17T08:42:44.203Z,101891.41
2022-10-17T08:45:33.538Z,101881.75
2022-10-17T08:48:03.113Z,101879.13
2022-10-17T08:50:38.106Z,101871.28
2022-10-17T08:53:15.688Z,101872.13
2022-10-17T08:55:54.447Z,101855.47
2022-10-17T08:58:33.533Z,101843.22
2022-10-17T09:01:19.816Z,101837.06
2022-10-17T09:04:24.741Z,101807.28
2022-10-17T09:07:01.155Z,101805.47
2022-10-17T09:09:49.558Z,101821.22
2022-10-17T09:12:53.033Z,101826.44
2022-10-17T09:15:46.566Z,101852.66
2022-10-17T09:18:28.078Z,101888.53
2022-10-17T09:21:00.689Z,101900.81
2022-10-17T09:23:46.208Z,101904.28
2022-10-17T09:26:14.166Z,101908.69
2022-10-17T09:28:43.598Z,101904.28
2022-10-17T09:31:23.419Z,101871.94
2022-10-17T09:33:58.022Z,101878.03
2022-10-17T09:36:29.347Z,101863.16
2022-10-17T09:38:59.958Z,101854.38
2022-10-17T09:41:46.107Z,101849.94
2022-10-17T09:44:16.970Z,101857.72
2022-10-17T09:47:11.895Z,101855.88
2022-10-17T09:49:41.702Z,101864.56
2022-10-17T09:52:16.339Z,101869.81
2022-10-17T09:54:48.861Z,101875.06
2022-10-17T09:57:18.357Z,101883.88
2022-10-17T09:59:47.091Z,101887.41
2022-10-17T10:02:14.929Z,101897.91
2022-10-17T10:05:18.940Z,101908.41
2022-10-17T10:08:04.241Z,101922.38
2022-10-17T10:10:33.277Z,101945.13
2022-10-17T10:13:12.733Z,101952.13
2022-10-17T10:15:43.262Z,101960.94
2022-10-17T10:18:26.207Z,101971.44
2022-10-17T10:21:04.585Z,101975.88
2022-10-17T10:23:32.118Z,101981.09
2022-10-17T10:26:03.415Z,101984.53
2022-10-17T10:28:34.027Z,101986.28
2022-10-17T10:31:08.844Z,101981.94
2022-10-17T10:33:42.014Z,101977.59
2022-10-17T10:36:11.012Z,101984.56
2022-10-17T10:38:42.405Z,101988.09
2022-10-17T10:41:12.507Z,101988.09
2022-10-17T10:43:44.609Z,101993.31
2022-10-17T10:46:32.313Z,101990.72
2022-10-17T10:49:03.123Z,102004.72
2022-10-17T10:51:35.441Z,102009.09
2022-10-17T10:54:21.414Z,102022.25
2022-10-17T10:59:33.611Z,102022.41
2022-10-17T11:02:02.214Z,102029.47
2022-10-17T11:04:43.333Z,102025.97
2022-10-17T11:07:23.503Z,102022.41
2022-10-17T11:10:15.189Z,102025.00
2022-10-17T11:15:32.605Z,102030.13
2022-10-17T11:18:07.495Z,102035.34
2022-10-17T11:20:50.086Z,102045.81
2022-10-17T11:23:31.317Z,102047.53
2022-10-17T11:26:03.845Z,102041.38
2022-10-17T11:28:31.808Z,102052.75
2022-10-17T11:31:05.756Z,102047.41
2022-10-17T11:33:58.078Z,102057.00
2022-10-17T11:36:30.637Z,102070.22
2022-10-17T11:39:04.698Z,102070.25
2022-10-17T11:41:43.509Z,102081.66
2022-10-17T11:44:29.381Z,102067.63
2022-10-17T11:47:02.356Z,102071.19
2022-10-17T11:49:39.887Z,102064.22
2022-10-17T11:52:55.341Z,102071.25
2022-10-17T11:55:25.049Z,102087.84
2022-10-17T11:58:25.406Z,102076.56
2022-10-17T12:01:12.502Z,102088.84
2022-10-17T12:04:08.284Z,102086.16
2022-10-17T12:06:54.282Z,102087.09
2022-10-17T12:09:32.499Z,102088.03
2022-10-17T12:12:02.993Z,102088.84
2022-10-17T12:14:46.956Z,102088.00
2022-10-17T12:17:42.260Z,102096.69
2022-10-17T12:20:28.460Z,102099.28
2022-10-17T12:23:00.472Z,102095.78
2022-10-17T12:25:32.692Z,102094.06
2022-10-17T12:28:17.208Z,102097.59
2022-10-17T12:30:54.198Z,102099.41
2022-10-17T12:33:50.073Z,102102.97
2022-10-17T12:36:21.091Z,102102.13
2022-10-17T12:39:03.459Z,102113.47
2022-10-17T12:41:40.119Z,102111.84
2022-10-17T12:44:21.430Z,102115.31
2022-10-17T12:47:07.958Z,102115.31
2022-10-17T12:49:46.663Z,102122.38
2022-10-17T12:55:27.420Z,102123.25
2022-10-17T12:58:04.557Z,102127.63
2022-10-17T13:01:05.399Z,102127.59
2022-10-17T13:03:47.740Z,102127.50
2022-10-17T13:06:30.661Z,102131.78
2022-10-17T13:09:05.766Z,102129.00
2022-10-17T13:11:37.253Z,102128.94
2022-10-17T13:14:12.947Z,102138.44
2022-10-17T13:16:52.090Z,102137.47
2022-10-17T13:19:23.350Z,102147.94
2022-10-17T13:22:05.988Z,102152.28
2022-10-17T13:24:42.010Z,102127.06
2022-10-17T13:27:31.229Z,102162.69
2022-10-17T13:30:00.965Z,102163.53
2022-10-17T13:32:37.313Z,102171.34
2022-10-17T13:35:17.114Z,102170.50
2022-10-17T13:37:52.984Z,102181.00
2022-10-17T13:43:24.097Z,102195.00
2022-10-17T13:45:54.835Z,102187.06
2022-10-17T13:48:28.674Z,102190.59
2022-10-17T13:51:02.466Z,102192.38
2022-10-17T13:53:34.750Z,102195.94
2022-10-17T13:56:29.259Z,102196.81
2022-10-17T13:59:05.135Z,102197.63
2022-10-17T14:01:33.281Z,102189.72
2022-10-17T14:04:08.940Z,102194.06
2022-10-17T14:06:49.305Z,102188.00
2022-10-17T14:09:29.759Z,102190.50
2022-10-17T14:12:01.634Z,102180.03
2022-10-17T14:14:32.191Z,102188.66
2022-10-17T14:17:22.860Z,102181.63
2022-10-17T14:20:16.115Z,102176.28
2022-10-17T14:22:50.577Z,102168.44
2022-10-17T14:25:39.004Z,102178.75
2022-10-17T14:28:11.001Z,102179.44
2022-10-17T14:30:56.308Z,102170.66
2022-10-17T14:33:29.497Z,102167.13
2022-10-17T14:35:58.617Z,102176.66
2022-10-17T14:38:27.017Z,102174.19
2022-10-17T14:41:09.764Z,102187.16
2022-10-17T14:43:45.528Z,102177.72
2022-10-17T14:46:16.832Z,102178.72
2022-10-17T14:48:47.603Z,102192.69
2022-10-17T14:51:18.027Z,102198.03
2022-10-17T14:54:06.403Z,102203.31
2022-10-17T14:56:42.552Z,102206.88
2022-10-17T14:59:13.763Z,102205.97
2022-10-17T15:01:43.272Z,102194.66
2022-10-17T15:04:11.261Z,102207.84
2022-10-17T15:06:40.595Z,102206.13
2022-10-17T15:09:08.143Z,102209.69
2022-10-17T15:11:35.598Z,102221.00
2022-10-17T15:14:03.118Z,102217.56
2022-10-17T15:16:35.675Z,102210.50
2022-10-17T15:19:03.199Z,102213.09
2022-10-17T15:21:40.505Z,102226.25
2022-10-17T15:24:10.908Z,102227.13
2022-10-17T15:26:38.907Z,102230.66
2022-10-17T15:29:07.234Z,102231.63
2022-10-17T15:31:35.894Z,102243.91
2022-10-17T15:34:03.399Z,102240.44
2022-10-17T15:36:36.827Z,102251.84
2022-10-17T15:39:04.637Z,102251.91
2022-10-17T15:41:33.639Z,102256.34
2022-10-17T15:44:01.218Z,102251.16
2022-10-17T15:46:31.303Z,102242.53
2022-10-17T15:49:03.548Z,102248.66
2022-10-17T15:51:31.084Z,102263.59
2022-10-17T15:54:01.230Z,102259.28
2022-10-17T15:56:35.829Z,102279.44
2022-10-17T15:59:05.715Z,102272.47
2022-10-17T16:01:35.001Z,102279.47
2022-10-17T16:04:02.501Z,102280.38
2022-10-17T16:06:30.306Z,102279.59
2022-10-17T16:08:57.820Z,102290.97
2022-10-17T16:11:34.213Z,102294.44
2022-10-17T16:14:04.377Z,102291.88
2022-10-17T16:16:32.550Z,102297.13
2022-10-17T16:19:01.381Z,102295.41
2022-10-17T16:24:05.209Z,102298.94
2022-10-17T16:26:33.254Z,102305.09
2022-10-17T16:29:02.956Z,102303.31
2022-10-17T16:31:40.538Z,102306.00
2022-10-17T16:34:08.893Z,102310.34
2022-10-17T16:36:36.465Z,102320.03
2022-10-17T16:39:04.391Z,102320.91
2022-10-17T16:41:35.266Z,102317.44
2022-10-17T16:44:05.191Z,102316.56
2022-10-17T16:46:34.226Z,102322.72
2022-10-17T16:49:01.721Z,102320.16
2022-10-17T16:51:29.292Z,102326.25
2022-10-17T16:54:00.055Z,102327.16
2022-10-17T16:56:29.829Z,102330.66
2022-10-17T16:58:57.533Z,102328.91
2022-10-17T17:01:26.657Z,102341.16
2022-10-17T17:03:54.593Z,102341.19
2022-10-17T17:06:30.125Z,102349.91
2022-10-17T17:08:58.544Z,102348.19
2022-10-17T17:11:28.523Z,102351.69
2022-10-17T17:13:57.724Z,102350.81
2022-10-17T17:16:26.886Z,102355.19
2022-10-17T17:19:07.849Z,102353.47
2022-10-17T17:21:36.122Z,102360.50
2022-10-17T17:24:05.170Z,102348.22
2022-10-17T17:26:36.098Z,102354.34
2022-10-17T17:29:04.257Z,102356.09
2022-10-17T17:31:34.905Z,102356.13
2022-10-17T17:34:03.318Z,102357.88
2022-10-17T17:36:33.086Z,102354.34
2022-10-17T17:39:03.989Z,102365.72
2022-10-17T17:41:34.280Z,102362.22
2022-10-17T17:44:03.042Z,102369.25
2022-10-17T17:46:30.510Z,102378.00
2022-10-17T17:48:58.352Z,102372.75
2022-10-17T17:51:29.407Z,102373.63
2022-10-17T17:53:58.053Z,102381.50
2022-10-17T17:56:29.139Z,102374.50
2022-10-17T17:58:59.576Z,102385.84
2022-10-17T18:01:29.978Z,102384.13
2022-10-17T18:04:00.486Z,102389.38
2022-10-17T18:06:29.221Z,102391.09
2022-10-17T18:09:02.668Z,102388.47
2022-10-17T18:11:30.370Z,102385.84
2022-10-17T18:14:01.006Z,102397.22
2022-10-17T18:16:29.843Z,102408.59
2022-10-17T18:19:00.311Z,102412.09
2022-10-17T18:21:30.343Z,102416.47
2022-10-17T18:23:59.184Z,102416.47
2022-10-17T18:26:26.912Z,102422.56
2022-10-17T18:28:54.663Z,102431.31
2022-10-17T18:31:28.350Z,102423.44
2022-10-17T18:33:57.748Z,102425.22
2022-10-17T18:36:26.128Z,102428.69
2022-10-17T18:38:54.722Z,102418.22
2022-10-17T18:41:24.340Z,102404.22
2022-10-17T18:43:53.071Z,102414.72
2022-10-17T18:46:25.677Z,102427.81
2022-10-17T18:48:53.689Z,102428.69
2022-10-17T18:51:23.109Z,102431.28
2022-10-17T18:53:53.383Z,102438.25
2022-10-17T18:56:22.267Z,102446.13
2022-10-17T18:58:50.311Z,102436.50
2022-10-17T19:01:20.652Z,102438.25
2022-10-17T19:03:50.449Z,102447.84
2022-10-17T19:06:20.892Z,102447.84
2022-10-17T19:08:49.217Z,102455.72
2022-10-17T19:11:26.629Z,102451.31
2022-10-17T19:13:54.895Z,102451.34
2022-10-17T19:16:25.049Z,102446.97
2022-10-17T19:19:01.653Z,102455.72
2022-10-17T19:21:29.508Z,102460.97
2022-10-17T19:24:03.591Z,102460.06
2022-10-17T19:26:32.846Z,102473.16
2022-10-17T19:29:00.952Z,102457.44
2022-10-17T19:31:31.533Z,102454.81
2022-10-17T19:33:59.641Z,102458.31
2022-10-17T19:36:33.386Z,102462.66
2022-10-17T19:39:03.660Z,102466.19
2022-10-17T19:41:31.242Z,102458.31
2022-10-17T19:43:58.798Z,102448.72
2022-10-17T19:46:28.302Z,102451.34
2022-10-17T19:48:56.179Z,102455.72
2022-10-17T19:51:25.345Z,102454.81
2022-10-17T19:53:54.885Z,102460.94
2022-10-17T19:56:23.580Z,102468.75
2022-10-17T19:58:51.906Z,102471.41
2022-10-17T20:01:22.885Z,102471.38
2022-10-17T20:03:51.361Z,102471.38
2022-10-17T20:06:19.256Z,102473.13
2022-10-17T20:08:46.827Z,102471.38
2022-10-17T20:11:17.419Z,102479.25
2022-10-17T20:13:45.883Z,102485.38
2022-10-17T20:16:16.519Z,102491.47
2022-10-17T20:18:44.783Z,102493.22
2022-10-17T20:21:14.964Z,102499.31
2022-10-17T20:23:43.443Z,102507.16
2022-10-17T20:26:26.055Z,102508.06
2022-10-17T20:29:03.846Z,102496.72
2022-10-17T20:31:31.554Z,102507.19
2022-10-17T20:34:00.402Z,102514.19
2022-10-17T20:36:27.925Z,102499.34
2022-10-17T20:38:56.885Z,102505.47
2022-10-17T20:41:25.175Z,102522.91
2022-10-17T20:43:53.757Z,102525.53
2022-10-17T20:46:35.532Z,102536.88
2022-10-17T20:49:05.056Z,102547.38
2022-10-17T20:51:32.855Z,102549.16
2022-10-17T20:54:00.499Z,102550.88
2022-10-17T20:56:30.281Z,102554.38
2022-10-17T20:59:03.322Z,102563.09
2022-10-17T21:01:32.531Z,102561.34
2022-10-17T21:04:15.919Z,102554.38
2022-10-17T21:06:48.089Z,102557.88
2022-10-17T21:09:16.102Z,102563.09
2022-10-17T21:11:44.093Z,102577.06
2022-10-17T21:14:12.807Z,102574.44
2022-10-17T21:16:41.253Z,102573.59
2022-10-17T21:19:08.771Z,102573.59
2022-10-17T21:21:38.217Z,102582.31
2022-10-17T21:24:09.025Z,102588.38
2022-10-17T21:26:38.155Z,102585.75
2022-10-17T21:29:07.057Z,102586.63
2022-10-17T21:31:37.175Z,102576.13
2022-10-17T21:34:13.324Z,102578.75
2022-10-17T21:36:40.850Z,102582.22
2022-10-17T21:41:41.534Z,102585.75
2022-10-17T21:44:19.382Z,102580.50
2022-10-17T21:46:47.643Z,102577.88
2022-10-17T21:49:19.376Z,102578.75
2022-10-17T21:51:48.233Z,102575.22
2022-10-17T21:54:16.683Z,102578.72
2022-10-17T21:56:44.545Z,102586.56
2022-10-17T21:59:12.808Z,102587.41
2022-10-17T22:01:43.276Z,102593.50
2022-10-17T22:04:16.983Z,102594.34
2022-10-17T22:06:47.655Z,102603.97
2022-10-17T22:09:18.091Z,102603.06
2022-10-17T22:11:48.128Z,102600.44
2022-10-17T22:14:19.451Z,102601.34
2022-10-17T22:16:48.248Z,102607.47
2022-10-17T22:19:23.053Z,102599.59
2022-10-17T22:21:50.686Z,102604.84
2022-10-17T22:26:52.983Z,102606.56
2022-10-17T22:29:20.855Z,102604.84
2022-10-17T22:31:48.326Z,102606.56
2022-10-17T22:34:17.510Z,102611.78
2022-10-17T22:36:45.370Z,102617.00
2022-10-17T22:39:12.915Z,102618.75
2022-10-17T22:41:40.515Z,102623.16
2022-10-17T22:44:07.981Z,102618.78
2022-10-17T22:46:35.527Z,102616.13
2022-10-17T22:49:03.132Z,102623.97
2022-10-17T22:51:30.656Z,102620.47
2022-10-17T22:53:58.254Z,102621.34
2022-10-17T22:56:25.790Z,102605.63
2022-10-17T22:58:54.194Z,102608.22
2022-10-17T23:01:24.365Z,102617.84
2022-10-17T23:03:53.467Z,102616.06
2022-10-17T23:06:21.599Z,102608.19
2022-10-17T23:08:49.626Z,102617.78
2022-10-17T23:11:17.713Z,102615.16
2022-10-17T23:13:45.513Z,102616.88
2022-10-17T23:16:12.970Z,102612.50
2022-10-17T23:18:40.939Z,102608.09
2022-10-17T23:21:09.335Z,102615.97
2022-10-17T23:23:37.517Z,102616.81
2022-10-17T23:26:12.250Z,102616.81
2022-10-17T23:28:40.819Z,102609.78
2022-10-17T23:31:15.920Z,102616.81
2022-10-17T23:33:45.051Z,102617.63
2022-10-17T23:36:14.801Z,102615.88
2022-10-17T23:38:44.093Z,102617.63
2022-10-17T23:41:12.535Z,102617.63
2022-10-17T23:43:40.077Z,102606.25
2022-10-17T23:46:08.561Z,102601.91
2022-10-17T23:48:36.086Z,102601.88
2022-10-17T23:51:04.395Z,102601.84
2022-10-17T23:53:32.281Z,102604.44
2022-10-17T23:55:59.785Z,102602.69
2022-10-17T23:58:27.231Z,102609.66
